Time;durP1;ratioP1;P1;durP2;ratioP2;P2;SDS_P1;SDS_P2;PMS_P1;PMS_P2;Temp;Humidity;BMP_temperature;BMP_pressure;BME280_temperature;BME280_humidity;BME280_pressure;Samples;Min_cycle;Max_cycle;Signal;HPM_P1;HPM_P2
2023/08/02 00:01:21;;;;;;;2.90;1.00;;;15.60;99.90;;;;;;4230547;28;20036;-81
2023/08/02 00:03:22;;;;;;;2.30;0.75;;;15.60;99.90;;;;;;4233745;28;20475;-81
2023/08/02 00:05:23;;;;;;;5.47;0.95;;;15.60;99.90;;;;;;4232877;28;20062;-81
2023/08/02 00:07:23;;;;;;;5.93;0.82;;;15.70;99.90;;;;;;4233283;28;20049;-81
2023/08/02 00:09:24;;;;;;;2.20;1.23;;;15.60;99.90;;;;;;4232871;28;20562;-78
2023/08/02 00:11:25;;;;;;;2.58;1.10;;;15.70;99.90;;;;;;4233592;28;20446;-79
2023/08/02 00:13:26;;;;;;;5.20;1.02;;;15.70;99.90;;;;;;4231822;28;20075;-79
2023/08/02 00:15:27;;;;;;;4.30;1.15;;;16.90;99.90;;;;;;4233098;28;20039;-81
2023/08/02 00:17:27;;;;;;;7.13;1.00;;;15.60;99.90;;;;;;4236577;28;20047;-81
2023/08/02 00:19:28;;;;;;;5.25;1.00;;;15.60;99.90;;;;;;4235378;28;20046;-80
2023/08/02 00:21:29;;;;;;;3.97;0.90;;;15.60;99.90;;;;;;4233333;28;20043;-81
2023/08/02 00:23:29;;;;;;;1.92;0.70;;;15.60;99.90;;;;;;4231677;28;20032;-81
2023/08/02 00:25:30;;;;;;;3.17;1.00;;;15.60;99.90;;;;;;4231263;28;20047;-81
2023/08/02 00:27:31;;;;;;;4.82;1.05;;;15.60;99.90;;;;;;4233307;28;20118;-78
2023/08/02 00:29:32;;;;;;;1.30;1.02;;;15.60;99.90;;;;;;4231131;28;20137;-78
2023/08/02 00:31:33;;;;;;;2.40;0.77;;;15.60;99.90;;;;;;4232790;28;20048;-79
2023/08/02 00:33:33;;;;;;;2.42;0.90;;;15.60;99.90;;;;;;4232900;28;20035;-79
2023/08/02 00:35:34;;;;;;;2.13;0.98;;;15.60;99.90;;;;;;4232637;28;20039;-79
2023/08/02 00:37:35;;;;;;;1.80;1.00;;;15.60;99.90;;;;;;4232572;28;20050;-79
2023/08/02 00:39:35;;;;;;;3.28;0.98;;;15.60;99.90;;;;;;4232686;28;20063;-79
2023/08/02 00:41:36;;;;;;;4.55;1.20;;;15.60;99.90;;;;;;4232777;28;20044;-79
2023/08/02 00:43:44;;;;;;;2.47;0.98;;;15.60;99.90;;;;;;4232582;28;20044;-79
2023/08/02 00:45:44;;;;;;;6.65;1.40;;;15.50;99.90;;;;;;4232003;28;20923;-79
2023/08/02 00:47:45;;;;;;;1.42;0.93;;;15.60;99.90;;;;;;4231001;28;20052;-79
2023/08/02 00:49:46;;;;;;;1.27;0.88;;;15.60;99.90;;;;;;4232395;28;20522;-79
2023/08/02 00:51:47;;;;;;;7.88;2.33;;;15.60;99.90;;;;;;4232969;28;20046;-79
2023/08/02 00:53:48;;;;;;;5.18;1.35;;;15.60;99.90;;;;;;4232814;28;20067;-79
2023/08/02 00:55:49;;;;;;;3.22;0.90;;;15.60;99.90;;;;;;4232235;28;20054;-79
2023/08/02 00:57:50;;;;;;;4.93;1.20;;;15.60;99.90;;;;;;4231875;28;20059;-79
2023/08/02 00:59:51;;;;;;;3.47;1.33;;;15.60;99.90;;;;;;4232461;28;20463;-79
2023/08/02 01:01:52;;;;;;;4.85;1.83;;;15.60;99.90;;;;;;4232031;28;20054;-79
2023/08/02 01:03:53;;;;;;;5.03;1.33;;;15.50;99.90;;;;;;4230924;28;20534;-79
2023/08/02 01:06:01;;;;;;;1.98;1.23;;;15.60;99.90;;;;;;4231771;28;20054;-79
2023/08/02 01:08:07;;;;;;;4.05;1.17;;;15.10;99.90;;;;;;4231918;28;20131;-79
2023/08/02 01:10:32;;;;;;;3.50;1.15;;;15.60;99.90;;;;;;4232350;28;20399;-79
2023/08/02 01:12:35;;;;;;;2.35;1.10;;;15.60;99.90;;;;;;4231615;28;20054;-80
2023/08/02 01:14:40;;;;;;;4.10;1.20;;;15.60;99.90;;;;;;4232221;28;20127;-80
2023/08/02 01:16:41;;;;;;;6.95;1.52;;;15.60;99.90;;;;;;4231612;28;20405;-80
2023/08/02 01:18:42;;;;;;;2.70;1.33;;;15.60;99.90;;;;;;4232221;28;20043;-80
2023/08/02 01:20:43;;;;;;;9.57;1.50;;;15.60;99.90;;;;;;4232134;28;20460;-80
2023/08/02 01:22:43;;;;;;;5.07;1.52;;;15.60;99.90;;;;;;4232022;28;20042;-80
2023/08/02 01:24:45;;;;;;;5.57;1.95;;;15.60;99.90;;;;;;4231900;28;20492;-80
2023/08/02 01:26:49;;;;;;;5.38;2.00;;;15.60;99.90;;;;;;4231909;28;20047;-80
2023/08/02 01:28:54;;;;;;;9.75;2.35;;;15.60;99.90;;;;;;4231641;28;20050;-80
2023/08/02 01:30:55;;;;;;;8.95;2.40;;;15.60;99.90;;;;;;4231457;28;20411;-80
2023/08/02 01:32:57;;;;;;;6.05;1.60;;;15.50;99.90;;;;;;4231691;28;20119;-80
2023/08/02 01:34:58;;;;;;;6.32;1.98;;;15.50;99.90;;;;;;4230481;28;20039;-80
2023/08/02 01:36:59;;;;;;;6.63;2.00;;;15.60;99.90;;;;;;4232033;28;20373;-80
2023/08/02 01:38:59;;;;;;;6.05;2.00;;;15.60;99.90;;;;;;4231001;28;20050;-80
2023/08/02 01:41:00;;;;;;;11.35;2.75;;;15.50;99.90;;;;;;4233962;28;20039;-80
2023/08/02 01:43:00;;;;;;;7.07;2.03;;;15.60;99.90;;;;;;4238799;28;20109;-80
2023/08/02 01:45:01;;;;;;;5.82;1.90;;;15.60;99.90;;;;;;4235943;28;20050;-80
2023/08/02 01:47:02;;;;;;;4.57;1.70;;;15.50;99.90;;;;;;4231676;28;20480;-80
2023/08/02 01:49:03;;;;;;;10.00;2.15;;;15.60;99.90;;;;;;4231715;28;20044;-80
2023/08/02 01:51:04;;;;;;;6.45;2.20;;;15.60;99.90;;;;;;4231094;28;20047;-80
2023/08/02 01:53:05;;;;;;;10.27;2.85;;;15.50;99.90;;;;;;4230815;28;20487;-80
2023/08/02 01:55:06;;;;;;;6.60;1.98;;;15.60;99.90;;;;;;4231377;28;20059;-80
2023/08/02 01:57:07;;;;;;;6.63;2.17;;;15.60;99.90;;;;;;4231872;28;20079;-80
2023/08/02 01:59:07;;;;;;;6.78;2.17;;;15.60;99.90;;;;;;4231716;28;20475;-81
2023/08/02 02:01:08;;;;;;;6.95;2.20;;;15.60;99.90;;;;;;4231520;28;20185;-81
2023/08/02 02:03:09;;;;;;;10.32;2.72;;;15.50;99.90;;;;;;4230937;28;20040;-80
2023/08/02 02:05:09;;;;;;;7.15;2.75;;;15.50;99.90;;;;;;4230556;28;20048;-80
2023/08/02 02:07:10;;;;;;;12.15;2.95;;;15.60;99.90;;;;;;4231481;28;20051;-80
2023/08/02 02:09:11;;;;;;;11.13;2.20;;;15.50;99.90;;;;;;4231319;28;20036;-80
2023/08/02 02:11:11;;;;;;;5.53;2.40;;;15.50;99.90;;;;;;4231003;28;20089;-80
2023/08/02 02:13:12;;;;;;;8.52;2.55;;;15.60;99.90;;;;;;4230507;28;20043;-80
2023/08/02 02:15:13;;;;;;;6.95;2.08;;;15.50;99.90;;;;;;4231245;28;20047;-80
2023/08/02 02:17:13;;;;;;;8.68;2.35;;;15.50;99.90;;;;;;4231138;28;20044;-80
2023/08/02 02:19:14;;;;;;;8.73;2.30;;;15.50;99.90;;;;;;4230988;28;20042;-80
2023/08/02 02:21:15;;;;;;;6.43;2.50;;;15.50;99.90;;;;;;4229679;28;20043;-80
2023/08/02 02:23:15;;;;;;;15.32;2.60;;;15.50;99.90;;;;;;4231317;28;20570;-80
2023/08/02 02:25:19;;;;;;;6.28;2.60;;;15.60;99.90;;;;;;4230229;28;20106;-80
2023/08/02 02:27:21;;;;;;;4.75;2.15;;;15.40;99.90;;;;;;4229560;28;20098;-80
2023/08/02 02:29:22;;;;;;;5.53;2.30;;;15.50;99.90;;;;;;4229381;28;20126;-80
2023/08/02 02:31:23;;;;;;;5.85;2.25;;;15.50;99.90;;;;;;4231072;28;20096;-80
2023/08/02 02:33:24;;;;;;;11.73;3.05;;;15.50;99.90;;;;;;4231199;28;20122;-80
2023/08/02 02:35:26;;;;;;;4.05;1.88;;;15.50;99.90;;;;;;4230553;28;20066;-80
2023/08/02 02:37:27;;;;;;;8.25;2.15;;;15.50;99.90;;;;;;4231034;28;20051;-80
2023/08/02 02:39:28;;;;;;;8.02;2.10;;;15.50;99.90;;;;;;4230300;28;20483;-80
2023/08/02 02:41:28;;;;;;;6.03;3.08;;;15.50;99.90;;;;;;4229748;28;20078;-81
2023/08/02 02:43:29;;;;;;;5.40;2.60;;;15.50;99.90;;;;;;4229478;28;20089;-80
2023/08/02 02:45:29;;;;;;;9.75;3.15;;;15.50;99.90;;;;;;4230559;28;20040;-80
2023/08/02 02:47:30;;;;;;;7.65;2.75;;;15.50;99.90;;;;;;4230436;28;20055;-80
2023/08/02 02:49:31;;;;;;;6.95;2.17;;;15.50;99.90;;;;;;4230290;28;20126;-80
2023/08/02 02:51:31;;;;;;;7.30;2.17;;;15.50;99.90;;;;;;4230824;28;20092;-80
2023/08/02 02:53:32;;;;;;;6.28;1.98;;;15.50;99.90;;;;;;4230445;28;20118;-80
2023/08/02 02:55:32;;;;;;;5.25;2.05;;;15.50;99.90;;;;;;4230422;28;20552;-80
2023/08/02 02:57:33;;;;;;;7.22;2.58;;;15.50;99.90;;;;;;4230513;28;20527;-80
2023/08/02 02:59:34;;;;;;;8.40;2.67;;;15.50;99.90;;;;;;4229378;28;20058;-80
2023/08/02 03:01:34;;;;;;;8.60;2.90;;;15.50;99.90;;;;;;4230779;28;20035;-80
2023/08/02 03:03:35;;;;;;;13.57;4.35;;;15.50;99.90;;;;;;4230985;28;20131;-80
2023/08/02 03:05:38;;;;;;;5.70;2.35;;;15.50;99.90;;;;;;4228957;28;20055;-80
2023/08/02 03:07:39;;;;;;;9.00;2.67;;;15.50;99.90;;;;;;4230630;28;20040;-80
2023/08/02 03:09:41;;;;;;;7.55;2.25;;;15.50;99.90;;;;;;4230023;28;20488;-80
2023/08/02 03:11:41;;;;;;;8.50;2.63;;;15.50;99.90;;;;;;4230638;28;20036;-80
2023/08/02 03:13:43;;;;;;;5.07;2.33;;;15.50;99.90;;;;;;4228985;28;20044;-81
2023/08/02 03:15:44;;;;;;;7.43;2.10;;;15.50;99.90;;;;;;4230370;28;20035;-81
2023/08/02 03:17:44;;;;;;;7.65;2.72;;;15.50;99.90;;;;;;4230638;28;20040;-80
2023/08/02 03:19:45;;;;;;;8.43;2.55;;;15.50;99.90;;;;;;4229887;28;20039;-81
2023/08/02 03:21:46;;;;;;;6.57;2.55;;;15.50;99.90;;;;;;4229817;28;20130;-81
2023/08/02 03:23:47;;;;;;;7.88;2.15;;;15.50;99.90;;;;;;4230122;28;20816;-81
2023/08/02 03:25:47;;;;;;;9.82;2.50;;;15.50;99.90;;;;;;4230225;28;20407;-80
2023/08/02 03:27:48;;;;;;;6.82;2.35;;;15.50;99.90;;;;;;4230617;28;20409;-80
2023/08/02 03:29:49;;;;;;;9.57;2.40;;;15.50;99.90;;;;;;4230302;28;20512;-81
2023/08/02 03:31:50;;;;;;;8.43;2.47;;;15.50;99.90;;;;;;4230780;28;20075;-80
2023/08/02 03:33:51;;;;;;;10.98;2.58;;;15.50;99.90;;;;;;4230731;28;20078;-80
2023/08/02 03:35:52;;;;;;;7.15;3.03;;;15.50;99.90;;;;;;4229598;28;20043;-79
2023/08/02 03:37:53;;;;;;;12.98;3.00;;;15.50;99.90;;;;;;4232880;28;20039;-80
2023/08/02 03:39:53;;;;;;;7.55;2.65;;;15.50;99.90;;;;;;4232270;28;20047;-79
2023/08/02 03:41:55;;;;;;;9.55;2.42;;;15.50;99.90;;;;;;4233203;28;20127;-79
2023/08/02 03:43:55;;;;;;;10.50;2.70;;;15.40;99.90;;;;;;4233646;28;20058;-79
2023/08/02 03:45:56;;;;;;;9.07;2.28;;;15.40;99.90;;;;;;4231377;28;20047;-79
2023/08/02 03:47:57;;;;;;;6.57;2.60;;;15.40;99.90;;;;;;4232517;28;20054;-79
2023/08/02 03:49:57;;;;;;;6.43;2.83;;;15.40;99.90;;;;;;4233299;28;20044;-79
2023/08/02 03:51:58;;;;;;;13.35;3.40;;;15.40;99.90;;;;;;4232947;28;20105;-79
2023/08/02 03:54:00;;;;;;;14.40;3.92;;;15.40;99.90;;;;;;4232015;28;20123;-80
2023/08/02 03:56:00;;;;;;;7.57;2.45;;;15.40;99.90;;;;;;4231863;28;20039;-79
2023/08/02 03:58:01;;;;;;;11.30;3.15;;;15.40;99.90;;;;;;4232875;28;20051;-79
2023/08/02 04:00:02;;;;;;;11.30;2.95;;;15.30;99.90;;;;;;4232857;28;20054;-79
2023/08/02 04:02:03;;;;;;;14.07;3.22;;;15.40;99.90;;;;;;4233354;28;20044;-79
2023/08/02 04:04:04;;;;;;;10.57;2.78;;;15.30;99.90;;;;;;4232839;28;20054;-79
2023/08/02 04:06:04;;;;;;;12.07;2.45;;;15.40;99.90;;;;;;4232891;27;20499;-79
2023/08/02 04:08:05;;;;;;;12.30;2.97;;;15.30;99.90;;;;;;4232151;28;20122;-79
2023/08/02 04:10:07;;;;;;;10.32;2.85;;;15.30;99.90;;;;;;4233195;28;20044;-79
2023/08/02 04:12:07;;;;;;;10.65;3.25;;;15.30;99.90;;;;;;4231355;28;20067;-79
2023/08/02 04:14:08;;;;;;;12.85;3.95;;;15.30;99.90;;;;;;4233229;28;20044;-80
2023/08/02 04:16:09;;;;;;;17.15;3.85;;;15.30;99.90;;;;;;4233060;28;20177;-80
2023/08/02 04:18:09;;;;;;;11.40;2.70;;;15.30;99.90;;;;;;4233380;28;20050;-80
2023/08/02 04:20:10;;;;;;;9.48;2.95;;;15.30;99.90;;;;;;4232496;28;20122;-79
2023/08/02 04:22:11;;;;;;;14.00;3.15;;;15.30;99.90;;;;;;4232816;28;20048;-79
2023/08/02 04:24:12;;;;;;;14.25;2.88;;;15.30;99.90;;;;;;4232393;28;20045;-79
2023/08/02 04:26:12;;;;;;;10.05;3.28;;;15.80;99.90;;;;;;4232893;28;20051;-80
2023/08/02 04:28:13;;;;;;;13.63;3.65;;;15.30;99.90;;;;;;4232851;28;20043;-79
2023/08/02 04:30:14;;;;;;;14.52;3.75;;;15.30;99.90;;;;;;4232437;28;20050;-79
2023/08/02 04:32:14;;;;;;;15.07;3.80;;;15.30;99.90;;;;;;4232732;28;20407;-79
2023/08/02 04:34:15;;;;;;;17.60;4.45;;;15.30;99.90;;;;;;4232609;28;20044;-79
2023/08/02 04:36:16;;;;;;;9.60;3.30;;;15.30;99.90;;;;;;4232103;28;20039;-80
2023/08/02 04:38:16;;;;;;;14.90;5.15;;;15.40;99.90;;;;;;4235771;28;20078;-78
2023/08/02 04:40:17;;;;;;;12.57;3.78;;;15.30;99.90;;;;;;4235168;28;20047;-79
2023/08/02 04:42:18;;;;;;;15.27;3.70;;;15.30;99.90;;;;;;4232452;28;20031;-79
2023/08/02 04:44:18;;;;;;;12.73;3.88;;;15.30;99.90;;;;;;4232393;28;20103;-79
2023/08/02 04:46:20;;;;;;;10.82;4.30;;;15.30;99.90;;;;;;4232084;28;20146;-79
2023/08/02 04:48:21;;;;;;;18.08;4.50;;;15.30;99.90;;;;;;4237565;28;20099;-78
2023/08/02 04:50:22;;;;;;;16.42;3.80;;;15.30;99.90;;;;;;4236824;28;20046;-78
2023/08/02 04:52:22;;;;;;;16.13;4.63;;;15.30;99.90;;;;;;4238069;28;20387;-79
2023/08/02 04:54:23;;;;;;;12.57;4.35;;;15.30;99.90;;;;;;4237665;28;20077;-79
2023/08/02 04:56:24;;;;;;;13.05;4.22;;;15.30;99.90;;;;;;4237692;28;20043;-79
2023/08/02 04:58:24;;;;;;;13.70;4.05;;;15.30;99.90;;;;;;4237916;28;20039;-80
2023/08/02 05:00:27;;;;;;;16.00;5.28;;;15.30;99.90;;;;;;4237948;28;20157;-78
2023/08/02 05:02:33;;;;;;;17.52;4.85;;;15.30;99.90;;;;;;4238726;28;20044;-79
2023/08/02 05:04:34;;;;;;;14.00;3.90;;;15.30;99.90;;;;;;4232397;28;20035;-80
2023/08/02 05:06:35;;;;;;;15.45;3.50;;;15.40;99.90;;;;;;4232317;28;20127;-79
2023/08/02 05:08:36;;;;;;;16.33;4.28;;;15.40;99.90;;;;;;4232125;28;20080;-79
2023/08/02 05:10:37;;;;;;;17.77;4.50;;;15.30;99.90;;;;;;4230806;28;20051;-80
2023/08/02 05:12:39;;;;;;;19.98;4.82;;;15.40;99.90;;;;;;4231408;28;20039;-79
2023/08/02 05:14:40;;;;;;;15.23;4.50;;;15.30;99.90;;;;;;4231684;28;20479;-79
2023/08/02 05:16:40;;;;;;;12.50;3.72;;;15.30;99.90;;;;;;4231207;28;20059;-79
2023/08/02 05:18:41;;;;;;;12.55;3.40;;;15.30;99.90;;;;;;4232047;28;20514;-79
2023/08/02 05:20:42;;;;;;;10.80;3.85;;;15.30;99.90;;;;;;4231957;28;20032;-80
2023/08/02 05:22:42;;;;;;;14.82;4.05;;;15.40;99.90;;;;;;4232115;28;20177;-79
2023/08/02 05:24:43;;;;;;;13.90;4.35;;;15.30;99.90;;;;;;4231871;28;20039;-79
2023/08/02 05:26:44;;;;;;;11.48;4.25;;;15.40;99.90;;;;;;4231548;28;20071;-79
2023/08/02 05:28:44;;;;;;;13.00;4.20;;;15.40;99.90;;;;;;4231584;28;20043;-79
2023/08/02 05:30:45;;;;;;;11.45;3.70;;;15.40;99.90;;;;;;4231643;28;20051;-79
2023/08/02 05:32:48;;;;;;;16.10;4.22;;;15.40;99.90;;;;;;4231693;28;20038;-79
2023/08/02 05:34:48;;;;;;;16.48;5.60;;;15.40;99.90;;;;;;4231225;28;20044;-80
2023/08/02 05:36:49;;;;;;;13.77;4.00;;;15.40;99.90;;;;;;4230067;28;20402;-80
2023/08/02 05:38:49;;;;;;;13.93;4.32;;;15.40;99.90;;;;;;4229994;28;20468;-80
2023/08/02 05:40:50;;;;;;;12.70;4.45;;;15.40;99.90;;;;;;4229943;28;20043;-80
2023/08/02 05:42:51;;;;;;;15.40;4.72;;;15.40;99.90;;;;;;4230426;28;20798;-80
2023/08/02 05:44:51;;;;;;;11.65;4.47;;;15.50;99.90;;;;;;4231281;28;20073;-80
2023/08/02 05:46:52;;;;;;;14.75;4.70;;;15.50;99.90;;;;;;4231281;28;20127;-79
2023/08/02 05:48:54;;;;;;;16.35;5.15;;;15.40;99.90;;;;;;4231534;28;20043;-80
2023/08/02 05:50:54;;;;;;;16.73;4.32;;;15.50;99.90;;;;;;4231508;28;20054;-80
2023/08/02 05:52:55;;;;;;;13.60;4.10;;;15.50;99.90;;;;;;4230545;28;20039;-80
2023/08/02 05:54:56;;;;;;;15.85;4.15;;;15.50;99.90;;;;;;4231352;28;20202;-80
2023/08/02 05:56:56;;;;;;;13.88;4.47;;;15.50;99.90;;;;;;4231508;28;20093;-80
2023/08/02 05:58:58;;;;;;;14.30;5.20;;;15.50;99.90;;;;;;4231093;28;20048;-80
2023/08/02 06:00:59;;;;;;;11.55;4.15;;;15.60;99.90;;;;;;4229888;28;20475;-80
2023/08/02 06:02:59;;;;;;;15.20;4.65;;;15.60;99.90;;;;;;4231433;28;20051;-80
2023/08/02 06:05:00;;;;;;;9.45;4.03;;;15.60;99.90;;;;;;4229536;28;20047;-80
2023/08/02 06:07:01;;;;;;;14.60;4.80;;;15.60;99.90;;;;;;4229978;28;20125;-80
2023/08/02 06:09:03;;;;;;;9.35;3.67;;;15.60;99.90;;;;;;4230238;28;20043;-80
2023/08/02 06:11:04;;;;;;;10.38;4.03;;;15.60;99.90;;;;;;4229835;28;20094;-80
2023/08/02 06:13:05;;;;;;;8.88;4.28;;;15.60;99.90;;;;;;4230489;28;20035;-80
2023/08/02 06:15:07;;;;;;;9.85;4.22;;;15.60;99.90;;;;;;4230662;28;20051;-79
2023/08/02 06:17:08;;;;;;;12.15;4.70;;;15.70;99.90;;;;;;4231361;28;20447;-80
2023/08/02 06:19:08;;;;;;;11.20;4.00;;;15.60;99.90;;;;;;4231462;28;20151;-80
2023/08/02 06:21:09;;;;;;;11.38;4.40;;;15.70;99.90;;;;;;4230707;28;20133;-80
2023/08/02 06:23:10;;;;;;;11.60;4.28;;;15.70;99.90;;;;;;4230571;28;20092;-80
2023/08/02 06:25:10;;;;;;;12.50;4.47;;;15.80;99.90;;;;;;4230732;28;20046;-80
2023/08/02 06:27:11;;;;;;;13.88;4.53;;;15.80;99.90;;;;;;4230880;28;20048;-80
2023/08/02 06:29:12;;;;;;;10.57;4.50;;;15.80;99.90;;;;;;4229877;28;20075;-80
2023/08/02 06:31:12;;;;;;;12.23;3.97;;;15.90;99.90;;;;;;4230898;28;20488;-80
2023/08/02 06:33:13;;;;;;;12.07;3.97;;;15.90;99.90;;;;;;4231211;28;20039;-80
2023/08/02 06:35:14;;;;;;;10.35;4.40;;;15.90;99.90;;;;;;4230206;28;20043;-80
2023/08/02 06:37:14;;;;;;;10.13;4.38;;;16.00;99.90;;;;;;4231191;28;20047;-80
2023/08/02 06:39:16;;;;;;;9.75;3.80;;;16.00;99.90;;;;;;4231123;28;20043;-80
2023/08/02 06:41:16;;;;;;;12.32;4.35;;;16.00;99.90;;;;;;4230325;28;20440;-80
2023/08/02 06:43:17;;;;;;;11.55;4.35;;;16.00;99.90;;;;;;4229958;28;20086;-80
2023/08/02 06:45:18;;;;;;;15.27;4.45;;;16.00;99.90;;;;;;4230292;28;20050;-80
2023/08/02 06:47:18;;;;;;;13.25;5.10;;;16.10;99.90;;;;;;4230395;28;20445;-80
2023/08/02 06:49:19;;;;;;;8.82;4.15;;;16.10;99.90;;;;;;4230673;28;20411;-79
2023/08/02 06:51:19;;;;;;;10.98;4.38;;;16.10;99.90;;;;;;4230635;28;20043;-80
2023/08/02 06:53:20;;;;;;;11.98;4.78;;;16.10;99.90;;;;;;4230293;28;20039;-79
2023/08/02 06:55:21;;;;;;;6.03;4.13;;;16.20;99.90;;;;;;4230532;28;20126;-80
2023/08/02 06:57:23;;;;;;;10.05;4.43;;;16.20;99.90;;;;;;4230555;28;20122;-79
2023/08/02 06:59:24;;;;;;;8.77;5.13;;;16.20;99.90;;;;;;4230651;28;20484;-80
2023/08/02 07:01:24;;;;;;;15.32;4.78;;;16.20;99.90;;;;;;4230344;28;20050;-80
2023/08/02 07:03:25;;;;;;;15.93;5.75;;;16.20;99.90;;;;;;4229980;28;20123;-80
2023/08/02 07:05:28;;;;;;;9.77;4.35;;;16.30;99.90;;;;;;4230199;28;20059;-80
2023/08/02 07:07:29;;;;;;;11.10;4.70;;;16.20;99.90;;;;;;4230361;28;20044;-80
2023/08/02 07:09:32;;;;;;;13.93;5.53;;;16.20;99.90;;;;;;4230224;28;20084;-80
2023/08/02 07:11:33;;;;;;;11.20;5.22;;;16.30;99.90;;;;;;4231773;28;20047;-80
2023/08/02 07:13:38;;;;;;;13.80;6.32;;;16.20;99.90;;;;;;4234059;28;20079;-80
2023/08/02 07:15:39;;;;;;;15.95;5.97;;;16.30;99.90;;;;;;4233679;27;20043;-80
2023/08/02 07:17:39;;;;;;;8.32;5.95;;;16.30;99.90;;;;;;4233638;28;20404;-80
2023/08/02 07:19:40;;;;;;;12.18;5.28;;;16.30;99.90;;;;;;4233264;28;20602;-80
2023/08/02 07:21:40;;;;;;;13.80;6.68;;;16.40;99.90;;;;;;4233753;28;20040;-80
2023/08/02 07:23:41;;;;;;;13.45;5.93;;;16.40;99.90;;;;;;4233746;28;20046;-80
2023/08/02 07:25:42;;;;;;;9.63;5.40;;;16.40;99.90;;;;;;4233613;28;20096;-81
2023/08/02 07:27:42;;;;;;;9.07;5.20;;;16.40;99.90;;;;;;4233827;28;20083;-80
2023/08/02 07:29:43;;;;;;;13.27;5.43;;;16.40;99.90;;;;;;4233846;28;20456;-80
2023/08/02 07:31:44;;;;;;;8.15;5.40;;;16.50;99.90;;;;;;4233108;28;20044;-80
2023/08/02 07:33:46;;;;;;;12.25;5.50;;;16.50;99.90;;;;;;4233584;28;20050;-80
2023/08/02 07:35:47;;;;;;;14.30;4.85;;;16.40;99.90;;;;;;4233193;28;20063;-81
2023/08/02 07:37:47;;;;;;;13.32;5.18;;;16.40;99.90;;;;;;4233232;28;20039;-81
2023/08/02 07:39:48;;;;;;;13.90;4.93;;;16.40;99.90;;;;;;4233252;28;20439;-81
2023/08/02 07:41:48;;;;;;;14.38;5.18;;;16.40;99.90;;;;;;4232339;28;20047;-81
2023/08/02 07:43:49;;;;;;;8.07;4.35;;;16.40;99.90;;;;;;4233769;28;20036;-81
2023/08/02 07:45:50;;;;;;;13.13;4.43;;;16.40;99.90;;;;;;4232945;28;20049;-81
2023/08/02 07:47:50;;;;;;;10.55;3.85;;;16.30;99.90;;;;;;4233176;28;20047;-81
2023/08/02 07:49:51;;;;;;;12.80;3.95;;;16.30;99.90;;;;;;4231650;28;20501;-81
2023/08/02 07:51:53;;;;;;;9.02;4.13;;;16.30;99.90;;;;;;4233504;28;20114;-80
2023/08/02 07:53:54;;;;;;;11.68;3.65;;;16.30;99.90;;;;;;4232712;28;20040;-81
2023/08/02 07:56:04;;;;;;;10.55;3.92;;;16.30;99.90;;;;;;4233148;28;20464;-81
2023/08/02 07:58:05;;;;;;;9.40;3.22;;;16.30;99.90;;;;;;4233532;28;20115;-81
2023/08/02 08:00:06;;;;;;;7.85;3.65;;;16.30;99.90;;;;;;4231882;28;20055;-81
2023/08/02 08:02:07;;;;;;;10.55;3.28;;;16.30;99.90;;;;;;4233388;28;20173;-81
2023/08/02 08:04:08;;;;;;;11.13;3.17;;;16.30;99.90;;;;;;4232877;28;20097;-81
2023/08/02 08:06:16;;;;;;;11.68;3.72;;;16.30;99.90;;;;;;4232835;28;20842;-81
2023/08/02 08:08:17;;;;;;;8.70;3.00;;;16.30;99.90;;;;;;4232791;28;20031;-81
2023/08/02 08:10:17;;;;;;;9.65;2.97;;;16.40;99.90;;;;;;4232616;28;20079;-81
2023/08/02 08:12:18;;;;;;;7.00;2.67;;;16.30;99.90;;;;;;4233052;28;20480;-81
2023/08/02 08:14:19;;;;;;;7.82;2.92;;;16.30;99.90;;;;;;4233795;28;20122;-82
2023/08/02 08:16:20;;;;;;;7.18;3.05;;;16.30;99.90;;;;;;4232770;28;20479;-81
2023/08/02 08:18:20;;;;;;;8.60;2.88;;;16.30;99.90;;;;;;4232833;28;20043;-81
2023/08/02 08:20:21;;;;;;;10.77;3.35;;;16.30;99.90;;;;;;4232008;28;20104;-81
2023/08/02 08:22:28;;;;;;;9.98;2.72;;;16.30;99.90;;;;;;4232313;28;20080;-81
2023/08/02 08:24:28;;;;;;;9.00;3.72;;;16.30;99.90;;;;;;4231961;28;20048;-81
2023/08/02 08:26:29;;;;;;;6.45;2.67;;;16.30;99.90;;;;;;4232638;28;20530;-81
2023/08/02 08:28:30;;;;;;;11.75;2.88;;;16.20;99.90;;;;;;4232858;28;20072;-81
2023/08/02 08:30:31;;;;;;;10.18;3.47;;;16.30;99.90;;;;;;4232415;28;20104;-81
2023/08/02 08:32:32;;;;;;;6.93;2.78;;;16.20;99.90;;;;;;4232633;28;20052;-81
2023/08/02 08:34:33;;;;;;;7.22;2.58;;;16.20;99.90;;;;;;4233169;28;20448;-81
2023/08/02 08:36:33;;;;;;;7.22;2.55;;;16.20;99.90;;;;;;4232642;28;20097;-81
2023/08/02 08:38:34;;;;;;;5.93;2.30;;;16.10;99.90;;;;;;4232791;28;20535;-81
2023/08/02 08:40:35;;;;;;;9.20;2.70;;;16.10;99.90;;;;;;4238113;27;20090;-80
2023/08/02 08:42:35;;;;;;;9.60;2.60;;;16.10;99.90;;;;;;4245472;28;20169;-80
2023/08/02 08:44:37;;;;;;;7.63;2.40;;;16.10;99.90;;;;;;4244197;28;20043;-80
2023/08/02 08:46:40;;;;;;;6.25;2.60;;;16.00;99.90;;;;;;4233455;28;20043;-80
2023/08/02 08:48:41;;;;;;;7.50;2.95;;;16.00;99.90;;;;;;4233728;27;20056;-81
2023/08/02 08:50:44;;;;;;;7.80;2.63;;;16.00;99.90;;;;;;4232303;28;20047;-81
2023/08/02 08:52:47;;;;;;;8.68;3.13;;;16.00;99.90;;;;;;4230946;28;20056;-81
2023/08/02 08:54:49;;;;;;;8.95;2.67;;;15.90;99.90;;;;;;4214775;28;20174;-81
2023/08/02 08:56:50;;;;;;;5.68;3.05;;;15.90;99.90;;;;;;4232342;28;20083;-81
2023/08/02 08:58:55;;;;;;;7.05;2.80;;;15.90;99.90;;;;;;4231104;28;20055;-81
2023/08/02 09:00:58;;;;;;;7.85;2.45;;;15.80;99.90;;;;;;4234012;28;20046;-80
2023/08/02 09:03:00;;;;;;;8.45;2.70;;;15.80;99.90;;;;;;4232261;28;20047;-80
2023/08/02 09:05:04;;;;;;;11.20;2.97;;;15.70;99.90;;;;;;4230896;28;20119;-81
2023/08/02 09:07:04;;;;;;;11.55;2.85;;;15.70;99.90;;;;;;4232713;28;20044;-80
2023/08/02 09:09:05;;;;;;;7.53;3.35;;;15.70;99.90;;;;;;4230990;28;20093;-80
2023/08/02 09:11:06;;;;;;;8.05;2.90;;;15.60;99.90;;;;;;4230829;28;20036;-80
2023/08/02 09:13:22;;;;;;;8.00;2.85;;;15.60;99.90;;;;;;4232260;28;20090;-80
2023/08/02 09:15:24;;;;;;;8.02;2.90;;;15.50;99.90;;;;;;4230371;28;20043;-80
2023/08/02 09:17:25;;;;;;;13.52;3.17;;;15.50;99.90;;;;;;4231820;28;20047;-80
2023/08/02 09:19:28;;;;;;;11.20;3.03;;;15.50;99.90;;;;;;4231141;28;20403;-80
2023/08/02 09:21:28;;;;;;;5.97;2.15;;;15.50;99.90;;;;;;4230614;28;20074;-80
2023/08/02 09:23:29;;;;;;;11.25;3.28;;;15.50;99.90;;;;;;4230881;28;20043;-80
2023/08/02 09:25:29;;;;;;;7.22;2.95;;;15.50;99.90;;;;;;4231441;28;20055;-80
2023/08/02 09:27:30;;;;;;;9.00;3.03;;;15.50;99.90;;;;;;4214029;28;20071;-80
2023/08/02 09:29:52;;;;;;;8.68;2.90;;;15.50;99.90;;;;;;4230767;28;20051;-80
2023/08/02 09:31:53;;;;;;;12.10;2.83;;;15.60;99.90;;;;;;4230702;28;20518;-80
2023/08/02 09:33:54;;;;;;;6.85;2.92;;;15.60;99.90;;;;;;4231718;28;20128;-80
2023/08/02 09:35:55;;;;;;;9.05;3.08;;;15.60;99.90;;;;;;4230936;28;20126;-80
2023/08/02 09:37:56;;;;;;;11.07;1.92;;;15.70;99.90;;;;;;4230692;28;20100;-80
2023/08/02 09:39:57;;;;;;;8.43;2.60;;;15.70;99.90;;;;;;4230388;28;20126;-80
2023/08/02 09:42:11;;;;;;;7.63;2.97;;;15.70;99.90;;;;;;4231611;28;20039;-80
2023/08/02 09:44:20;;;;;;;10.02;2.78;;;15.70;99.90;;;;;;4230314;28;20465;-80
2023/08/02 09:46:30;;;;;;;;;;;15.60;99.90;;;;;;4231848;28;20110;-80
2023/08/02 09:48:37;;;;;;;7.78;2.67;;;15.60;99.90;;;;;;4230085;28;19924;-80
2023/08/02 09:51:03;;;;;;;8.15;3.15;;;15.60;99.90;;;;;;4231092;28;20068;-80
2023/08/02 09:53:15;;;;;;;9.32;2.90;;;15.60;99.90;;;;;;4230362;28;20609;-80
2023/08/02 09:55:16;;;;;;;8.88;3.30;;;15.60;99.90;;;;;;4229519;28;20036;-80
2023/08/02 09:57:17;;;;;;;14.02;4.20;;;15.70;99.90;;;;;;4231558;28;20122;-80
2023/08/02 09:59:18;;;;;;;8.65;3.13;;;15.70;99.90;;;;;;4231362;28;20074;-80
2023/08/02 10:01:21;;;;;;;7.90;3.08;;;15.70;99.90;;;;;;4230181;28;20051;-80
2023/08/02 10:03:23;;;;;;;8.88;3.25;;;15.80;99.90;;;;;;4230161;28;20055;-80
2023/08/02 10:05:24;;;;;;;8.50;2.83;;;15.90;99.90;;;;;;4230877;28;20079;-80
2023/08/02 10:07:33;;;;;;;6.72;2.53;;;15.90;99.90;;;;;;4213206;28;20160;-80
2023/08/02 10:09:36;;;;;;;7.88;3.53;;;15.90;99.90;;;;;;4230193;28;20044;-80
2023/08/02 10:11:47;;;;;;;8.38;3.05;;;16.00;99.90;;;;;;4229380;28;20495;-80
2023/08/02 10:13:50;;;;;;;6.03;2.90;;;16.00;99.90;;;;;;4229917;28;20180;-80
2023/08/02 10:15:51;;;;;;;5.72;3.25;;;16.00;99.90;;;;;;4231015;28;20035;-80
2023/08/02 10:17:55;;;;;;;5.70;3.20;;;16.00;99.90;;;;;;4230758;28;20039;-80
2023/08/02 10:19:57;;;;;;;9.65;3.15;;;16.00;99.90;;;;;;4229871;28;20071;-80
2023/08/02 10:21:59;;;;;;;9.20;3.92;;;16.00;99.90;;;;;;4231012;28;20484;-80
2023/08/02 10:24:01;;;;;;;5.85;2.90;;;16.00;99.90;;;;;;4231078;28;20047;-80
2023/08/02 10:26:02;;;;;;;9.40;3.50;;;16.00;99.90;;;;;;4230988;28;20463;-80
2023/08/02 10:28:04;;;;;;;10.48;4.53;;;15.90;99.90;;;;;;4241466;28;20035;-80
2023/08/02 10:30:05;;;;;;;6.32;3.30;;;15.90;99.90;;;;;;4245872;28;20048;-80